JST891 YHBA-YSSY
Flight info
| Callsign | JST891 |
|---|---|
| Flight time | N/A |
| Altitude | 35000 |
| Route | DCT HAAVI T55 ITIDE DCT MUDDL DCT HUUGO/N0460F340 H91 IGDAM/N0446F330 H652 BOREE DCT |
| Aircraft | A320/M-SDE3FGHIRWY/LB1 |
Departure
| Time | 2026-04-15 01:54 |
|---|---|
| Airport | Hervey Bay Airport (YHBA) |
Arrival
| Time | N/A |
|---|---|
| Airport | Sydney Kingsford Smith International Airport (YSSY) |
| Time | Latitude | Longitude | Altitude | Speed | Heading |
|---|---|---|---|---|---|
| 2026-04-15 01:29 | -25.32027 | 152.88483 | 62 ft | 0 kts | 69° |
| 2026-04-15 01:50 | -25.32033 | 152.88492 | 61 ft | 2 kts | 141° |
| 2026-04-15 01:50 | -25.32060 | 152.88482 | 58 ft | 6 kts | 198° |
| 2026-04-15 01:51 | -25.32116 | 152.88461 | 56 ft | 11 kts | 204° |
| 2026-04-15 01:51 | -25.32173 | 152.88407 | 58 ft | 12 kts | 269° |
| 2026-04-15 01:51 | -25.32130 | 152.88301 | 58 ft | 18 kts | 300° |
| 2026-04-15 01:51 | -25.32062 | 152.88168 | 56 ft | 21 kts | 299° |
| 2026-04-15 01:52 | -25.31989 | 152.88021 | 61 ft | 23 kts | 298° |
| 2026-04-15 01:52 | -25.31908 | 152.87861 | 60 ft | 25 kts | 298° |
| 2026-04-15 01:52 | -25.31820 | 152.87679 | 52 ft | 29 kts | 299° |
| 2026-04-15 01:52 | -25.31721 | 152.87483 | 55 ft | 24 kts | 298° |
| 2026-04-15 01:53 | -25.31642 | 152.87323 | 51 ft | 22 kts | 299° |
| 2026-04-15 01:53 | -25.31594 | 152.87206 | 57 ft | 7 kts | 281° |
| 2026-04-15 01:53 | -25.31576 | 152.87190 | 54 ft | 3 kts | 39° |
| 2026-04-15 01:53 | -25.31588 | 152.87216 | 52 ft | 1 kts | 123° |
| 2026-04-15 01:54 | -25.31667 | 152.87369 | 52 ft | 63 kts | 119° |
| 2026-04-15 01:54 | -25.32011 | 152.88064 | 60 ft | 138 kts | 118° |
| 2026-04-15 01:54 | -25.32526 | 152.89087 | 590 ft | 153 kts | 118° |
| 2026-04-15 01:54 | -25.33051 | 152.90124 | 1451 ft | 155 kts | 118° |
| 2026-04-15 01:55 | -25.33571 | 152.91165 | 2014 ft | 162 kts | 119° |
| 2026-04-15 01:55 | -25.34358 | 152.92157 | 2193 ft | 185 kts | 139° |
| 2026-04-15 01:55 | -25.35473 | 152.93040 | 2401 ft | 209 kts | 151° |
| 2026-04-15 01:55 | -25.36942 | 152.93542 | 2672 ft | 236 kts | 173° |
| 2026-04-15 01:56 | -25.38667 | 152.93424 | 3154 ft | 257 kts | 188° |
| 2026-04-15 01:56 | -25.40425 | 152.93108 | 3943 ft | 261 kts | 179° |
| 2026-04-15 01:56 | -25.42224 | 152.93347 | 4834 ft | 262 kts | 168° |
| 2026-04-15 01:56 | -25.44037 | 152.93722 | 5718 ft | 265 kts | 168° |
| 2026-04-15 01:57 | -25.45869 | 152.94109 | 6556 ft | 270 kts | 168° |
| 2026-04-15 01:57 | -25.47730 | 152.94507 | 7308 ft | 275 kts | 168° |
| 2026-04-15 01:57 | -25.49623 | 152.94909 | 8042 ft | 280 kts | 169° |
| 2026-04-15 01:57 | -25.51562 | 152.95316 | 8793 ft | 285 kts | 170° |
| 2026-04-15 01:58 | -25.53529 | 152.95726 | 9507 ft | 290 kts | 171° |
| 2026-04-15 01:58 | -25.55538 | 152.96145 | 10188 ft | 296 kts | 171° |
| 2026-04-15 01:58 | -25.57517 | 152.96557 | 10403 ft | 317 kts | 171° |